sensor_id;sensor_type;location;lat;lon;timestamp;pressure;altitude;pressure_sealevel;temperature;humidity
56630;BME280;42502;40.732;-74.254;2023-04-04T00:00:19;100590.91;;;22.81;31.99
56630;BME280;42502;40.732;-74.254;2023-04-04T00:02:20;100609.13;;;22.87;31.96
56630;BME280;42502;40.732;-74.254;2023-04-04T00:04:20;100610.31;;;22.86;31.95
56630;BME280;42502;40.732;-74.254;2023-04-04T00:06:21;100595.34;;;22.82;31.84
56630;BME280;42502;40.732;-74.254;2023-04-04T00:08:22;100606.69;;;22.86;31.84
56630;BME280;42502;40.732;-74.254;2023-04-04T00:10:23;100603.81;;;22.82;32.04
56630;BME280;42502;40.732;-74.254;2023-04-04T00:12:24;100602.16;;;22.81;31.91
56630;BME280;42502;40.732;-74.254;2023-04-04T00:14:25;100604.97;;;22.81;31.92
56630;BME280;42502;40.732;-74.254;2023-04-04T00:16:26;100593.72;;;22.81;32.06
56630;BME280;42502;40.732;-74.254;2023-04-04T00:18:27;100595.34;;;22.82;31.91
56630;BME280;42502;40.732;-74.254;2023-04-04T00:20:29;100585.59;;;22.76;32.07
56630;BME280;42502;40.732;-74.254;2023-04-04T00:22:30;100597.34;;;22.82;32.07
56630;BME280;42502;40.732;-74.254;2023-04-04T00:24:31;100596.09;;;22.79;32.07
56630;BME280;42502;40.732;-74.254;2023-04-04T00:26:33;100603.34;;;22.80;31.92
56630;BME280;42502;40.732;-74.254;2023-04-04T00:28:34;100602.84;;;22.75;31.99
56630;BME280;42502;40.732;-74.254;2023-04-04T00:30:34;100611.72;;;22.77;32.00
56630;BME280;42502;40.732;-74.254;2023-04-04T00:32:36;100600.84;;;22.75;32.17
56630;BME280;42502;40.732;-74.254;2023-04-04T00:34:36;100612.09;;;22.75;31.89
56630;BME280;42502;40.732;-74.254;2023-04-04T00:36:37;100602.47;;;22.76;31.88
56630;BME280;42502;40.732;-74.254;2023-04-04T00:38:38;100604.47;;;22.76;31.95
56630;BME280;42502;40.732;-74.254;2023-04-04T00:40:45;100593.56;;;22.74;32.01
56630;BME280;42502;40.732;-74.254;2023-04-04T00:42:47;100587.13;;;22.74;31.87
56630;BME280;42502;40.732;-74.254;2023-04-04T00:44:48;100591.97;;;22.73;32.04
56630;BME280;42502;40.732;-74.254;2023-04-04T00:46:51;100590.69;;;22.70;31.89
56630;BME280;42502;40.732;-74.254;2023-04-04T00:48:53;100592.69;;;22.70;31.82
56630;BME280;42502;40.732;-74.254;2023-04-04T00:50:54;100608.84;;;22.73;32.07
56630;BME280;42502;40.732;-74.254;2023-04-04T00:52:55;100608.00;;;22.73;31.95
56630;BME280;42502;40.732;-74.254;2023-04-04T00:54:59;100608.75;;;22.69;31.96
56630;BME280;42502;40.732;-74.254;2023-04-04T00:57:00;100607.22;;;22.72;31.87
56630;BME280;42502;40.732;-74.254;2023-04-04T00:59:02;100604.75;;;22.70;31.83
56630;BME280;42502;40.732;-74.254;2023-04-04T01:01:02;100591.88;;;22.69;32.10
56630;BME280;42502;40.732;-74.254;2023-04-04T01:03:04;100588.25;;;22.69;31.83
56630;BME280;42502;40.732;-74.254;2023-04-04T01:05:07;100589.41;;;22.68;31.83
56630;BME280;42502;40.732;-74.254;2023-04-04T01:07:08;100586.59;;;22.68;32.09
56630;BME280;42502;40.732;-74.254;2023-04-04T01:09:09;100584.53;;;22.65;31.95
56630;BME280;42502;40.732;-74.254;2023-04-04T01:11:10;100596.63;;;22.65;32.01
56630;BME280;42502;40.732;-74.254;2023-04-04T01:13:11;100592.97;;;22.65;31.86
56630;BME280;42502;40.732;-74.254;2023-04-04T01:15:12;100587.28;;;22.61;31.84
56630;BME280;42502;40.732;-74.254;2023-04-04T01:17:13;100598.09;;;22.59;31.99
56630;BME280;42502;40.732;-74.254;2023-04-04T01:19:42;100607.00;;;22.61;31.98
56630;BME280;42502;40.732;-74.254;2023-04-04T01:21:39;100613.44;;;22.62;32.16
56630;BME280;42502;40.732;-74.254;2023-04-04T01:23:59;100616.63;;;22.60;32.04
56630;BME280;42502;40.732;-74.254;2023-04-04T01:26:04;100620.22;;;22.61;31.98
56630;BME280;42502;40.732;-74.254;2023-04-04T01:28:05;100618.25;;;22.61;31.90
56630;BME280;42502;40.732;-74.254;2023-04-04T01:30:07;100610.91;;;22.57;32.07
56630;BME280;42502;40.732;-74.254;2023-04-04T01:39:47;100612.84;;;22.52;31.90
56630;BME280;42502;40.732;-74.254;2023-04-04T01:41:49;100616.81;;;22.51;31.94
56630;BME280;42502;40.732;-74.254;2023-04-04T01:43:51;100620.53;;;22.56;32.04
56630;BME280;42502;40.732;-74.254;2023-04-04T01:45:52;100625.28;;;22.51;31.84
56630;BME280;42502;40.732;-74.254;2023-04-04T01:47:53;100615.66;;;22.52;31.84
56630;BME280;42502;40.732;-74.254;2023-04-04T01:49:53;100615.66;;;22.52;32.17
56630;BME280;42502;40.732;-74.254;2023-04-04T01:51:55;100618.03;;;22.50;31.87
56630;BME280;42502;40.732;-74.254;2023-04-04T01:53:56;100629.28;;;22.50;31.92
56630;BME280;42502;40.732;-74.254;2023-04-04T01:55:57;100633.72;;;22.51;31.91
56630;BME280;42502;40.732;-74.254;2023-04-04T01:57:57;100630.09;;;22.51;32.18
56630;BME280;42502;40.732;-74.254;2023-04-04T01:59:58;100634.91;;;22.50;32.16
56630;BME280;42502;40.732;-74.254;2023-04-04T02:01:59;100635.28;;;22.49;32.11
56630;BME280;42502;40.732;-74.254;2023-04-04T02:04:00;100639.72;;;22.50;31.99
56630;BME280;42502;40.732;-74.254;2023-04-04T02:06:01;100640.09;;;22.48;31.93
56630;BME280;42502;40.732;-74.254;2023-04-04T02:08:02;100637.28;;;22.48;31.91
56630;BME280;42502;40.732;-74.254;2023-04-04T02:10:04;100637.28;;;22.48;31.92
56630;BME280;42502;40.732;-74.254;2023-04-04T02:12:05;100623.50;;;22.43;32.07
56630;BME280;42502;40.732;-74.254;2023-04-04T02:14:06;100628.38;;;22.46;32.00
56630;BME280;42502;40.732;-74.254;2023-04-04T02:16:06;100620.69;;;22.43;31.65
56630;BME280;42502;40.732;-74.254;2023-04-04T02:18:07;100626.38;;;22.47;32.08
56630;BME280;42502;40.732;-74.254;2023-04-04T02:20:08;100630.03;;;22.47;32.28
56630;BME280;42502;40.732;-74.254;2023-04-04T02:22:10;100636.84;;;22.46;31.94
56630;BME280;42502;40.732;-74.254;2023-04-04T02:24:10;100625.41;;;22.39;32.26
56630;BME280;42502;40.732;-74.254;2023-04-04T02:26:11;100629.50;;;22.42;32.25
56630;BME280;42502;40.732;-74.254;2023-04-04T02:28:12;100621.84;;;22.42;31.86
56630;BME280;42502;40.732;-74.254;2023-04-04T02:30:13;100628.31;;;22.43;32.08
56630;BME280;42502;40.732;-74.254;2023-04-04T02:32:14;100632.31;;;22.42;31.99
56630;BME280;42502;40.732;-74.254;2023-04-04T02:34:15;100637.13;;;22.41;32.08
56630;BME280;42502;40.732;-74.254;2023-04-04T02:36:16;100636.28;;;22.41;32.16
56630;BME280;42502;40.732;-74.254;2023-04-04T02:38:17;100635.50;;;22.40;32.17
56630;BME280;42502;40.732;-74.254;2023-04-04T02:40:18;100631.88;;;22.40;32.02
56630;BME280;42502;40.732;-74.254;2023-04-04T02:42:21;100633.03;;;22.39;32.10
56630;BME280;42502;40.732;-74.254;2023-04-04T02:44:22;100625.34;;;22.35;32.06
56630;BME280;42502;40.732;-74.254;2023-04-04T02:46:23;100627.34;;;22.35;31.99
56630;BME280;42502;40.732;-74.254;2023-04-04T02:48:24;100633.41;;;22.37;31.90
56630;BME280;42502;40.732;-74.254;2023-04-04T02:50:25;100625.72;;;22.34;32.10
56630;BME280;42502;40.732;-74.254;2023-04-04T02:52:26;100623.25;;;22.32;31.88
56630;BME280;42502;40.732;-74.254;2023-04-04T02:54:27;100623.25;;;22.32;32.12
56630;BME280;42502;40.732;-74.254;2023-04-04T02:56:28;100631.34;;;22.34;32.10
56630;BME280;42502;40.732;-74.254;2023-04-04T02:58:30;100624.91;;;22.33;31.74
56630;BME280;42502;40.732;-74.254;2023-04-04T03:00:31;100624.06;;;22.33;32.13
56630;BME280;42502;40.732;-74.254;2023-04-04T03:02:32;100623.25;;;22.32;31.92
56630;BME280;42502;40.732;-74.254;2023-04-04T03:04:33;100623.63;;;22.31;32.10
56630;BME280;42502;40.732;-74.254;2023-04-04T03:06:35;100627.25;;;22.31;31.99
56630;BME280;42502;40.732;-74.254;2023-04-04T03:08:37;100614.31;;;22.30;32.03
56630;BME280;42502;40.732;-74.254;2023-04-04T03:10:37;100608.63;;;22.27;31.93
56630;BME280;42502;40.732;-74.254;2023-04-04T03:12:38;100614.31;;;22.30;31.98
56630;BME280;42502;40.732;-74.254;2023-04-04T03:14:40;100605.44;;;22.28;32.16
56630;BME280;42502;40.732;-74.254;2023-04-04T03:16:40;100600.63;;;22.29;32.06
56630;BME280;42502;40.732;-74.254;2023-04-04T03:18:41;100590.47;;;22.24;31.99
56630;BME280;42502;40.732;-74.254;2023-04-04T03:20:42;100599.00;;;22.28;32.07
56630;BME280;42502;40.732;-74.254;2023-04-04T03:22:43;100597.38;;;22.27;32.06
56630;BME280;42502;40.732;-74.254;2023-04-04T03:24:44;100600.19;;;22.27;32.10
56630;BME280;42502;40.732;-74.254;2023-04-04T03:26:45;100598.09;;;22.24;31.87
56630;BME280;42502;40.732;-74.254;2023-04-04T03:28:45;100592.47;;;22.24;31.99
56630;BME280;42502;40.732;-74.254;2023-04-04T03:30:46;100594.13;;;22.25;32.04
56630;BME280;42502;40.732;-74.254;2023-04-04T03:32:47;100588.75;;;22.19;31.92
56630;BME280;42502;40.732;-74.254;2023-04-04T03:34:50;100592.03;;;22.22;32.11
56630;BME280;42502;40.732;-74.254;2023-04-04T03:36:54;100601.28;;;22.22;32.04
56630;BME280;42502;40.732;-74.254;2023-04-04T03:38:56;100586.69;;;22.16;32.03
56630;BME280;42502;40.732;-74.254;2023-04-04T03:41:01;100589.13;;;22.18;31.83
56630;BME280;42502;40.732;-74.254;2023-04-04T03:43:05;100593.56;;;22.19;32.02
56630;BME280;42502;40.732;-74.254;2023-04-04T03:45:07;100588.31;;;22.17;32.03
56630;BME280;42502;40.732;-74.254;2023-04-04T03:47:08;100586.31;;;22.18;31.96
56630;BME280;42502;40.732;-74.254;2023-04-04T03:49:09;100590.34;;;22.17;32.03
56630;BME280;42502;40.732;-74.254;2023-04-04T03:51:10;100597.13;;;22.16;32.07
56630;BME280;42502;40.732;-74.254;2023-04-04T03:53:11;100602.75;;;22.16;32.03
56630;BME280;42502;40.732;-74.254;2023-04-04T03:55:12;100592.25;;;22.13;31.99
56630;BME280;42502;40.732;-74.254;2023-04-04T03:57:16;100597.88;;;22.13;32.11
56630;BME280;42502;40.732;-74.254;2023-04-04T03:59:18;100591.44;;;22.12;32.01
56630;BME280;42502;40.732;-74.254;2023-04-04T04:01:18;100592.59;;;22.11;32.16
56630;BME280;42502;40.732;-74.254;2023-04-04T04:03:20;100595.41;;;22.11;32.08
56630;BME280;42502;40.732;-74.254;2023-04-04T04:05:21;100586.53;;;22.09;31.86
56630;BME280;42502;40.732;-74.254;2023-04-04T04:07:22;100590.16;;;22.10;31.79
56630;BME280;42502;40.732;-74.254;2023-04-04T04:09:23;100578.38;;;22.04;32.05
56630;BME280;42502;40.732;-74.254;2023-04-04T04:11:26;100582.88;;;22.09;32.25
56630;BME280;42502;40.732;-74.254;2023-04-04T04:13:27;100588.53;;;22.09;32.10
56630;BME280;42502;40.732;-74.254;2023-04-04T04:15:33;100585.72;;;22.09;31.96
56630;BME280;42502;40.732;-74.254;2023-04-04T04:17:38;100592.06;;;22.06;32.02
56630;BME280;42502;40.732;-74.254;2023-04-04T04:19:39;100586.06;;;22.07;32.03
56630;BME280;42502;40.732;-74.254;2023-04-04T04:21:40;100589.72;;;22.08;32.02
56630;BME280;42502;40.732;-74.254;2023-04-04T04:23:42;100592.44;;;22.04;32.18
56630;BME280;42502;40.732;-74.254;2023-04-04T04:25:46;100598.06;;;22.04;31.97
56630;BME280;42502;40.732;-74.254;2023-04-04T04:27:47;100587.16;;;22.03;32.20
56630;BME280;42502;40.732;-74.254;2023-04-04T04:29:48;100591.63;;;22.04;32.15
56630;BME280;42502;40.732;-74.254;2023-04-04T04:31:49;100588.81;;;22.04;32.11
56630;BME280;42502;40.732;-74.254;2023-04-04T04:33:51;100581.56;;;22.03;32.14
56630;BME280;42502;40.732;-74.254;2023-04-04T04:35:52;100580.75;;;22.02;32.14
56630;BME280;42502;40.732;-74.254;2023-04-04T04:37:54;100580.28;;;22.00;32.07
56630;BME280;42502;40.732;-74.254;2023-04-04T04:39:55;100573.41;;;21.97;32.12
56630;BME280;42502;40.732;-74.254;2023-04-04T04:41:56;100570.66;;;22.01;32.11
56630;BME280;42502;40.732;-74.254;2023-04-04T04:43:57;100571.84;;;22.00;32.24
56630;BME280;42502;40.732;-74.254;2023-04-04T04:45:58;100576.66;;;21.99;32.06
56630;BME280;42502;40.732;-74.254;2023-04-04T04:47:59;100564.88;;;21.94;31.96
56630;BME280;42502;40.732;-74.254;2023-04-04T04:49:59;100559.25;;;21.94;32.02
56630;BME280;42502;40.732;-74.254;2023-04-04T04:52:00;100575.00;;;21.98;32.15
56630;BME280;42502;40.732;-74.254;2023-04-04T04:54:01;100578.19;;;21.97;32.33
56630;BME280;42502;40.732;-74.254;2023-04-04T04:56:02;100569.31;;;21.95;31.85
56630;BME280;42502;40.732;-74.254;2023-04-04T04:58:04;100575.38;;;21.97;32.23
56630;BME280;42502;40.732;-74.254;2023-04-04T05:00:06;100559.72;;;21.96;32.05
56630;BME280;42502;40.732;-74.254;2023-04-04T05:02:09;100550.81;;;21.94;32.15
56630;BME280;42502;40.732;-74.254;2023-04-04T05:04:10;100553.63;;;21.94;32.00
56630;BME280;42502;40.732;-74.254;2023-04-04T05:06:11;100558.06;;;21.95;32.07
56630;BME280;42502;40.732;-74.254;2023-04-04T05:08:11;100563.69;;;21.95;32.07
56630;BME280;42502;40.732;-74.254;2023-04-04T05:10:12;100555.63;;;21.93;32.09
56630;BME280;42502;40.732;-74.254;2023-04-04T05:12:13;100562.06;;;21.94;32.29
56630;BME280;42502;40.732;-74.254;2023-04-04T05:14:14;100556.34;;;21.90;32.04
56630;BME280;42502;40.732;-74.254;2023-04-04T05:16:15;100556.72;;;21.89;31.95
56630;BME280;42502;40.732;-74.254;2023-04-04T05:18:17;100559.59;;;21.92;32.08
56630;BME280;42502;40.732;-74.254;2023-04-04T05:20:18;100562.78;;;21.91;31.92
56630;BME280;42502;40.732;-74.254;2023-04-04T05:22:19;100567.59;;;21.90;32.03
56630;BME280;42502;40.732;-74.254;2023-04-04T05:24:19;100569.63;;;21.90;32.19
56630;BME280;42502;40.732;-74.254;2023-04-04T05:26:23;100576.78;;;21.87;32.20
56630;BME280;42502;40.732;-74.254;2023-04-04T05:28:24;100576.41;;;21.89;32.15
56630;BME280;42502;40.732;-74.254;2023-04-04T05:30:25;100572.78;;;21.88;32.07
56630;BME280;42502;40.732;-74.254;2023-04-04T05:32:25;100580.41;;;21.88;32.32
56630;BME280;42502;40.732;-74.254;2023-04-04T05:34:26;100563.44;;;21.84;32.21
56630;BME280;42502;40.732;-74.254;2023-04-04T05:36:27;100562.63;;;21.83;32.24
56630;BME280;42502;40.732;-74.254;2023-04-04T05:38:31;100566.69;;;21.86;31.96
56630;BME280;42502;40.732;-74.254;2023-04-04T05:40:32;100559.34;;;21.81;32.14
56630;BME280;42502;40.732;-74.254;2023-04-04T05:42:32;100563.44;;;21.84;32.05
56630;BME280;42502;40.732;-74.254;2023-04-04T05:44:33;100566.63;;;21.82;32.13
56630;BME280;42502;40.732;-74.254;2023-04-04T05:46:36;100563.00;;;21.82;32.18
56630;BME280;42502;40.732;-74.254;2023-04-04T05:48:37;100558.56;;;21.81;32.25
56630;BME280;42502;40.732;-74.254;2023-04-04T05:50:37;100561.00;;;21.82;32.13
56630;BME280;42502;40.732;-74.254;2023-04-04T05:52:38;100554.09;;;21.80;32.12
56630;BME280;42502;40.732;-74.254;2023-04-04T05:54:39;100555.75;;;21.81;32.22
56630;BME280;42502;40.732;-74.254;2023-04-04T05:56:40;100551.66;;;21.78;32.40
56630;BME280;42502;40.732;-74.254;2023-04-04T05:58:41;100552.13;;;21.80;32.01
56630;BME280;42502;40.732;-74.254;2023-04-04T06:00:42;100552.50;;;21.79;32.17
56630;BME280;42502;40.732;-74.254;2023-04-04T06:02:44;100545.22;;;21.78;32.14
56630;BME280;42502;40.732;-74.254;2023-04-04T06:04:44;100539.06;;;21.72;32.01
56630;BME280;42502;40.732;-74.254;2023-04-04T06:06:45;100545.59;;;21.76;32.39
56630;BME280;42502;40.732;-74.254;2023-04-04T06:08:46;100543.59;;;21.77;32.20
56630;BME280;42502;40.732;-74.254;2023-04-04T06:10:47;100525.13;;;21.60;32.27
56630;BME280;42502;40.732;-74.254;2023-04-04T06:12:48;100541.88;;;21.72;32.18
56630;BME280;42502;40.732;-74.254;2023-04-04T06:14:49;100537.53;;;21.75;32.11
56630;BME280;42502;40.732;-74.254;2023-04-04T06:16:50;100535.00;;;21.70;32.20
56630;BME280;42502;40.732;-74.254;2023-04-04T06:18:50;100536.63;;;21.71;32.16
56630;BME280;42502;40.732;-74.254;2023-04-04T06:20:51;100531.34;;;21.69;32.20
56630;BME280;42502;40.732;-74.254;2023-04-04T06:22:52;100542.72;;;21.73;32.08
56630;BME280;42502;40.732;-74.254;2023-04-04T06:24:53;100536.25;;;21.72;32.13
56630;BME280;42502;40.732;-74.254;2023-04-04T06:26:54;100527.38;;;21.70;32.18
56630;BME280;42502;40.732;-74.254;2023-04-04T06:28:55;100536.19;;;21.69;32.21
56630;BME280;42502;40.732;-74.254;2023-04-04T06:30:56;100531.28;;;21.65;32.06
56630;BME280;42502;40.732;-74.254;2023-04-04T06:32:57;100521.66;;;21.67;32.13
56630;BME280;42502;40.732;-74.254;2023-04-04T06:34:58;100539.34;;;21.67;32.13
56630;BME280;42502;40.732;-74.254;2023-04-04T06:36:59;100531.66;;;21.64;32.32
56630;BME280;42502;40.732;-74.254;2023-04-04T06:39:00;100533.72;;;21.67;32.25
56630;BME280;42502;40.732;-74.254;2023-04-04T06:41:00;100526.41;;;21.62;32.08
56630;BME280;42502;40.732;-74.254;2023-04-04T06:43:02;100528.47;;;21.65;32.28
56630;BME280;42502;40.732;-74.254;2023-04-04T06:45:03;100530.81;;;21.63;32.32
56630;BME280;42502;40.732;-74.254;2023-04-04T06:47:03;100529.22;;;21.62;32.01
56630;BME280;42502;40.732;-74.254;2023-04-04T06:49:05;100544.50;;;21.65;32.18
56630;BME280;42502;40.732;-74.254;2023-04-04T06:51:06;100547.31;;;21.65;32.14
56630;BME280;42502;40.732;-74.254;2023-04-04T06:53:07;100541.25;;;21.63;32.09
56630;BME280;42502;40.732;-74.254;2023-04-04T06:55:08;100548.88;;;21.62;32.22
56630;BME280;42502;40.732;-74.254;2023-04-04T06:57:09;100543.63;;;21.61;32.29
56630;BME280;42502;40.732;-74.254;2023-04-04T06:59:10;100541.19;;;21.59;32.06
56630;BME280;42502;40.732;-74.254;2023-04-04T07:01:11;100540.34;;;21.59;32.24
56630;BME280;42502;40.732;-74.254;2023-04-04T07:03:12;100532.28;;;21.57;32.29
56630;BME280;42502;40.732;-74.254;2023-04-04T07:05:13;100531.03;;;21.55;32.32
56630;BME280;42502;40.732;-74.254;2023-04-04T07:07:17;100538.75;;;21.58;31.97
56630;BME280;42502;40.732;-74.254;2023-04-04T07:09:18;100530.56;;;21.53;32.35
56630;BME280;42502;40.732;-74.254;2023-04-04T07:11:18;100539.91;;;21.57;32.17
56630;BME280;42502;40.732;-74.254;2023-04-04T07:13:19;100541.06;;;21.56;32.01
56630;BME280;42502;40.732;-74.254;2023-04-04T07:15:20;100547.53;;;21.56;32.10
56630;BME280;42502;40.732;-74.254;2023-04-04T07:17:21;100540.91;;;21.48;32.16
56630;BME280;42502;40.732;-74.254;2023-04-04T07:19:22;100542.28;;;21.55;32.15
56630;BME280;42502;40.732;-74.254;2023-04-04T07:21:23;100536.19;;;21.53;32.16
56630;BME280;42502;40.732;-74.254;2023-04-04T07:23:25;100550.72;;;21.55;32.11
56630;BME280;42502;40.732;-74.254;2023-04-04T07:25:26;100555.50;;;21.54;32.21
56630;BME280;42502;40.732;-74.254;2023-04-04T07:27:27;100551.88;;;21.54;31.91
56630;BME280;42502;40.732;-74.254;2023-04-04T07:29:28;100546.63;;;21.52;32.11
56630;BME280;42502;40.732;-74.254;2023-04-04T07:31:28;100539.25;;;21.47;32.18
56630;BME280;42502;40.732;-74.254;2023-04-04T07:33:29;100544.06;;;21.47;32.13
56630;BME280;42502;40.732;-74.254;2023-04-04T07:35:30;100541.69;;;21.49;32.32
56630;BME280;42502;40.732;-74.254;2023-04-04T07:37:31;100544.19;;;21.51;32.00
56630;BME280;42502;40.732;-74.254;2023-04-04T07:39:32;100541.69;;;21.49;32.15
56630;BME280;42502;40.732;-74.254;2023-04-04T07:41:33;100530.38;;;21.45;32.19
56630;BME280;42502;40.732;-74.254;2023-04-04T07:43:35;100539.25;;;21.47;32.28
56630;BME280;42502;40.732;-74.254;2023-04-04T07:45:35;100544.78;;;21.44;32.00
56630;BME280;42502;40.732;-74.254;2023-04-04T07:47:36;100546.34;;;21.41;32.25
56630;BME280;42502;40.732;-74.254;2023-04-04T07:49:37;100554.84;;;21.45;32.34
56630;BME280;42502;40.732;-74.254;2023-04-04T07:51:38;100553.22;;;21.44;32.35
56630;BME280;42502;40.732;-74.254;2023-04-04T07:53:39;100555.19;;;21.43;32.11
56630;BME280;42502;40.732;-74.254;2023-04-04T07:55:40;100552.75;;;21.42;32.17
56630;BME280;42502;40.732;-74.254;2023-04-04T07:57:41;100545.53;;;21.41;32.32
56630;BME280;42502;40.732;-74.254;2023-04-04T07:59:41;100544.69;;;21.40;32.18
56630;BME280;42502;40.732;-74.254;2023-04-04T08:01:42;100557.13;;;21.39;32.30
56630;BME280;42502;40.732;-74.254;2023-04-04T08:03:43;100560.38;;;21.41;32.24
56630;BME280;42502;40.732;-74.254;2023-04-04T08:05:44;100552.19;;;21.36;31.99
56630;BME280;42502;40.732;-74.254;2023-04-04T08:07:45;100557.38;;;21.34;32.27
56630;BME280;42502;40.732;-74.254;2023-04-04T08:09:46;100568.63;;;21.34;31.97
56630;BME280;42502;40.732;-74.254;2023-04-04T08:11:47;100577.13;;;21.38;32.26
56630;BME280;42502;40.732;-74.254;2023-04-04T08:13:48;100569.34;;;21.31;32.02
56630;BME280;42502;40.732;-74.254;2023-04-04T08:15:49;100580.31;;;21.36;32.21
56630;BME280;42502;40.732;-74.254;2023-04-04T08:17:50;100577.06;;;21.34;32.08
56630;BME280;42502;40.732;-74.254;2023-04-04T08:19:51;100590.28;;;21.34;32.27
56630;BME280;42502;40.732;-74.254;2023-04-04T08:21:52;100587.13;;;21.35;32.21
56630;BME280;42502;40.732;-74.254;2023-04-04T08:23:52;100585.47;;;21.34;32.17
56630;BME280;42502;40.732;-74.254;2023-04-04T08:25:53;100576.97;;;21.30;32.30
56630;BME280;42502;40.732;-74.254;2023-04-04T08:27:54;100580.16;;;21.29;32.27
56630;BME280;42502;40.732;-74.254;2023-04-04T08:29:55;100597.88;;;21.33;32.08
56630;BME280;42502;40.732;-74.254;2023-04-04T08:31:56;100600.69;;;21.33;32.28
56630;BME280;42502;40.732;-74.254;2023-04-04T08:33:57;100597.44;;;21.31;32.26
56630;BME280;42502;40.732;-74.254;2023-04-04T08:35:58;100595.34;;;21.28;32.29
56630;BME280;42502;40.732;-74.254;2023-04-04T08:37:59;100595.72;;;21.26;32.03
56630;BME280;42502;40.732;-74.254;2023-04-04T08:40:03;100593.28;;;21.25;31.98
56630;BME280;42502;40.732;-74.254;2023-04-04T08:42:05;100594.91;;;21.26;32.03
56630;BME280;42502;40.732;-74.254;2023-04-04T08:44:08;100594.56;;;21.27;32.38
56630;BME280;42502;40.732;-74.254;2023-04-04T08:46:12;100596.53;;;21.27;32.03
56630;BME280;42502;40.732;-74.254;2023-04-04T08:48:14;100590.09;;;21.26;32.18
56630;BME280;42502;40.732;-74.254;2023-04-04T08:50:17;100585.56;;;21.22;32.16
56630;BME280;42502;40.732;-74.254;2023-04-04T08:52:21;100602.50;;;21.25;32.05
56630;BME280;42502;40.732;-74.254;2023-04-04T08:54:25;100593.28;;;21.25;32.02
56630;BME280;42502;40.732;-74.254;2023-04-04T08:56:28;100591.19;;;21.22;32.13
56630;BME280;42502;40.732;-74.254;2023-04-04T08:58:33;100599.59;;;21.22;31.95
56630;BME280;42502;40.732;-74.254;2023-04-04T09:00:33;100600.41;;;21.22;32.15
56630;BME280;42502;40.732;-74.254;2023-04-04T09:03:03;100604.78;;;21.20;32.12
56630;BME280;42502;40.732;-74.254;2023-04-04T09:05:06;100599.97;;;21.20;32.33
56630;BME280;42502;40.732;-74.254;2023-04-04T09:07:08;100599.53;;;21.18;32.30
56630;BME280;42502;40.732;-74.254;2023-04-04T09:09:10;100601.97;;;21.20;32.21
56630;BME280;42502;40.732;-74.254;2023-04-04T09:11:12;100605.94;;;21.19;32.27
56630;BME280;42502;40.732;-74.254;2023-04-04T09:13:14;100595.44;;;21.16;32.14
56630;BME280;42502;40.732;-74.254;2023-04-04T09:15:15;100601.84;;;21.16;32.25
56630;BME280;42502;40.732;-74.254;2023-04-04T09:17:16;100612.28;;;21.16;32.22
56630;BME280;42502;40.732;-74.254;2023-04-04T09:19:16;100605.75;;;21.11;32.30
56630;BME280;42502;40.732;-74.254;2023-04-04T09:21:18;100610.19;;;21.12;32.12
56630;BME280;42502;40.732;-74.254;2023-04-04T09:23:19;100608.13;;;21.09;32.09
56630;BME280;42502;40.732;-74.254;2023-04-04T09:25:22;100621.06;;;21.14;32.01
56630;BME280;42502;40.732;-74.254;2023-04-04T09:27:23;100626.59;;;21.10;32.32
56630;BME280;42502;40.732;-74.254;2023-04-04T09:29:24;100627.06;;;21.12;32.24
56630;BME280;42502;40.732;-74.254;2023-04-04T09:31:25;100624.25;;;21.12;32.12
56630;BME280;42502;40.732;-74.254;2023-04-04T09:33:30;100625.41;;;21.11;32.13
56630;BME280;42502;40.732;-74.254;2023-04-04T09:35:33;100632.22;;;21.10;32.22
56630;BME280;42502;40.732;-74.254;2023-04-04T09:37:34;100610.47;;;21.07;32.11
56630;BME280;42502;40.732;-74.254;2023-04-04T09:39:38;100626.59;;;21.10;31.95
56630;BME280;42502;40.732;-74.254;2023-04-04T09:41:39;100622.88;;;21.06;32.26
56630;BME280;42502;40.732;-74.254;2023-04-04T09:43:44;100630.59;;;21.09;32.08
56630;BME280;42502;40.732;-74.254;2023-04-04T09:45:45;100624.84;;;21.06;31.97
56630;BME280;42502;40.732;-74.254;2023-04-04T09:47:46;100630.13;;;21.07;32.02
56630;BME280;42502;40.732;-74.254;2023-04-04T09:49:56;100632.47;;;21.05;31.73
56630;BME280;42502;40.732;-74.254;2023-04-04T09:51:57;100614.25;;;20.99;32.14
56630;BME280;42502;40.732;-74.254;2023-04-04T09:53:58;100636.44;;;21.04;32.21
56630;BME280;42502;40.732;-74.254;2023-04-04T09:55:59;100636.44;;;21.04;31.92
56630;BME280;42502;40.732;-74.254;2023-04-04T09:58:13;100642.78;;;21.01;32.18
56630;BME280;42502;40.732;-74.254;2023-04-04T10:00:19;100639.97;;;21.01;32.09
56630;BME280;42502;40.732;-74.254;2023-04-04T10:02:20;100643.63;;;21.02;32.05
56630;BME280;42502;40.732;-74.254;2023-04-04T10:04:22;100641.16;;;21.00;32.12
56630;BME280;42502;40.732;-74.254;2023-04-04T10:06:26;100637.53;;;21.00;32.14
56630;BME280;42502;40.732;-74.254;2023-04-04T10:08:28;100638.72;;;20.99;32.08
56630;BME280;42502;40.732;-74.254;2023-04-04T10:10:30;100635.06;;;20.98;32.04
56630;BME280;42502;40.732;-74.254;2023-04-04T10:12:35;100640.69;;;20.98;32.24
56630;BME280;42502;40.732;-74.254;2023-04-04T10:14:37;100645.50;;;20.98;32.13
56630;BME280;42502;40.732;-74.254;2023-04-04T10:16:44;100651.47;;;20.96;32.14
56630;BME280;42502;40.732;-74.254;2023-04-04T10:18:45;100654.28;;;20.96;32.14
56630;BME280;42502;40.732;-74.254;2023-04-04T10:20:48;100656.28;;;20.96;32.09
56630;BME280;42502;40.732;-74.254;2023-04-04T10:22:50;100658.59;;;20.93;31.94
56630;BME280;42502;40.732;-74.254;2023-04-04T10:24:51;100668.69;;;20.94;32.10
56630;BME280;42502;40.732;-74.254;2023-04-04T10:26:53;100667.03;;;20.93;32.15